Aquebogue, New York
Current Conditions -  °F | °C
As of 7:53 PM on Wednesday 22 Oct 2014 (Local Time) from KFOK Reporting Station
Light Rain Light Rain  
Wind Chill: 53°   Ceiling: 1400
Heat Index: 53°   Visibility: 8mi
Dew Point: 49°   Wind: 25mph
Humidity: 86%   Direction: 20°NNE
Pressure: 29.67"   Gusts: 45mph
Location:  40.94°N, 72.61°W
Report Text: KFOK 222353Z 02022G39KT 8SM -RA OVC014 12/09 A2967 RMK AO2 PK WND 01046/2315 RAB08 SLP046 P0003 60044 T01170094 10139 20117 58034
Loading
Personal Weather Stations






























Interactive Weather Map
Tropical Storm Tracking
New forecast layout! Learn more

10-Day Weather Forecast

Advertisements
Track Severe Weather on mobile